Time;durP1;ratioP1;P1;durP2;ratioP2;P2;SDS_P1;SDS_P2;PMS_P1;PMS_P2;Temp;Humidity;BMP_temperature;BMP_pressure;BME280_temperature;BME280_humidity;BME280_pressure;Samples;Min_cycle;Max_cycle;Signal;HPM_P1;HPM_P2
2020/12/29 00:00:35;;;;;;;2.67;2.33;;;3.90;1.00;;;;;;5053688;28;20168;-74
2020/12/29 00:03:17;;;;;;;1.87;1.77;;;3.90;1.00;;;;;;5053941;28;20191;-74
2020/12/29 00:05:44;;;;;;;2.60;2.10;;;3.90;1.00;;;;;;5054396;28;20163;-74
2020/12/29 00:08:10;;;;;;;1.70;1.60;;;3.90;1.00;;;;;;5054186;28;20206;-74
2020/12/29 00:10:37;;;;;;;2.60;2.00;;;3.90;1.00;;;;;;5052657;28;20670;-74
2020/12/29 00:13:02;;;;;;;2.17;1.75;;;4.00;1.00;;;;;;5053870;28;20184;-74
2020/12/29 00:15:28;;;;;;;2.47;2.20;;;4.00;1.00;;;;;;5053535;28;20670;-75
2020/12/29 00:17:53;;;;;;;2.67;1.87;;;4.00;1.00;;;;;;5053875;28;20510;-74
2020/12/29 00:20:24;;;;;;;3.73;2.60;;;3.90;1.00;;;;;;5054120;28;20769;-80
2020/12/29 00:23:05;;;;;;;9.50;1.83;;;4.00;1.00;;;;;;5053697;28;20163;-80
2020/12/29 00:25:31;;;;;;;3.20;1.90;;;4.00;1.00;;;;;;5050371;28;20651;-80
2020/12/29 00:28:47;;;;;;;2.03;1.77;;;4.00;1.00;;;;;;5052455;28;20206;-80
2020/12/29 00:31:41;;;;;;;2.15;1.52;;;4.00;1.00;;;;;;5053322;28;20209;-80
2020/12/29 00:34:07;;;;;;;1.52;1.40;;;4.00;1.00;;;;;;5053436;28;20175;-80
2020/12/29 00:36:53;;;;;;;4.80;2.53;;;4.00;1.00;;;;;;5053561;28;20183;-80
2020/12/29 00:39:19;;;;;;;2.35;1.38;;;4.10;1.00;;;;;;5032967;28;20199;-80
2020/12/29 00:41:44;;;;;;;3.77;2.00;;;4.00;1.00;;;;;;5044652;28;20255;-80
2020/12/29 00:44:47;;;;;;;12.10;1.60;;;4.00;1.00;;;;;;5053062;28;20178;-80
2020/12/29 00:47:18;;;;;;;1.20;1.20;;;4.00;1.00;;;;;;5046024;28;20281;-80
2020/12/29 00:50:05;;;;;;;4.28;2.03;;;4.00;1.00;;;;;;5048054;28;20186;-80
2020/12/29 00:52:41;;;;;;;2.00;1.80;;;4.00;1.00;;;;;;5042503;28;20179;-80
2020/12/29 00:55:41;;;;;;;1.85;1.75;;;4.00;1.00;;;;;;5053080;28;20654;-80
2020/12/29 00:58:07;;;;;;;2.05;1.58;;;3.90;1.00;;;;;;5053069;28;20179;-80
2020/12/29 01:01:06;;;;;;;2.50;1.70;;;4.00;1.00;;;;;;5057005;28;20179;-80
2020/12/29 01:04:17;;;;;;;1.52;1.42;;;3.90;1.00;;;;;;5057382;28;20163;-80
2020/12/29 01:06:43;;;;;;;2.40;1.40;;;3.90;1.00;;;;;;5057624;28;20187;-74
2020/12/29 01:09:23;;;;;;;1.40;1.30;;;4.00;1.00;;;;;;5057660;28;20160;-74
2020/12/29 01:11:50;;;;;;;3.20;1.30;;;3.90;1.00;;;;;;5057274;28;20167;-74
2020/12/29 01:14:16;;;;;;;2.03;1.52;;;3.90;1.00;;;;;;5057147;28;20190;-74
2020/12/29 01:16:45;;;;;;;2.30;1.50;;;4.00;1.00;;;;;;5056955;28;20243;-74
2020/12/29 01:19:11;;;;;;;1.70;1.45;;;4.00;1.00;;;;;;5057040;28;20454;-75
2020/12/29 01:21:59;;;;;;;1.37;1.03;;;4.00;1.00;;;;;;5056150;28;20214;-80
2020/12/29 01:24:41;;;;;;;2.53;1.45;;;4.00;1.00;;;;;;5056775;28;20222;-80
2020/12/29 01:27:53;;;;;;;2.65;1.17;;;4.00;1.00;;;;;;5056631;28;20191;-80
2020/12/29 01:30:23;;;;;;;3.95;1.45;;;4.00;1.00;;;;;;5052228;28;20167;-80
2020/12/29 01:32:53;;;;;;;1.52;1.42;;;3.90;1.00;;;;;;5056540;28;20190;-80
2020/12/29 01:35:19;;;;;;;2.55;1.50;;;3.90;1.00;;;;;;5056854;28;20587;-74
2020/12/29 01:37:45;;;;;;;1.53;1.43;;;4.00;1.00;;;;;;5056789;28;20245;-74
2020/12/29 01:40:12;;;;;;;3.20;1.45;;;4.00;1.00;;;;;;5058562;28;20188;-74
2020/12/29 01:42:42;;;;;;;1.27;1.15;;;4.00;1.00;;;;;;5056571;28;20190;-74
2020/12/29 01:45:15;;;;;;;2.30;1.30;;;4.00;1.00;;;;;;5056261;28;20168;-74
2020/12/29 01:47:42;;;;;;;1.80;1.65;;;4.00;1.00;;;;;;5054071;28;20207;-74
2020/12/29 01:50:12;;;;;;;1.50;1.40;;;4.00;1.00;;;;;;5053915;28;20172;-74
2020/12/29 01:52:42;;;;;;;1.73;1.08;;;4.00;1.00;;;;;;5056401;28;20160;-80
2020/12/29 01:55:35;;;;;;;0.95;0.95;;;4.00;1.00;;;;;;5049194;28;20208;-80
2020/12/29 01:58:18;;;;;;;1.40;1.30;;;4.00;1.00;;;;;;5035246;28;20176;-80
2020/12/29 02:00:45;;;;;;;1.95;1.73;;;4.00;1.00;;;;;;5044409;28;20201;-80
2020/12/29 02:03:23;;;;;;;6.45;1.10;;;4.10;1.00;;;;;;5036681;28;20165;-80
2020/12/29 02:06:19;;;;;;;1.05;1.00;;;4.10;1.00;;;;;;5046921;28;20171;-80
2020/12/29 02:08:49;;;;;;;1.83;1.10;;;4.10;1.00;;;;;;5055722;28;20207;-80
2020/12/29 02:11:24;;;;;;;1.58;1.42;;;4.10;1.00;;;;;;5054112;28;20168;-80
2020/12/29 02:13:49;;;;;;;1.33;1.23;;;4.10;1.00;;;;;;5055846;28;20189;-80
2020/12/29 02:16:24;;;;;;;6.37;1.10;;;4.10;1.00;;;;;;5064077;28;20262;-80
2020/12/29 02:18:53;;;;;;;1.67;1.30;;;4.10;1.00;;;;;;5055624;28;20167;-80
2020/12/29 02:21:42;;;;;;;1.40;1.30;;;4.10;1.00;;;;;;5071668;28;20306;-80
2020/12/29 02:24:11;;;;;;;1.55;1.23;;;4.10;1.00;;;;;;5061884;28;20181;-80
2020/12/29 02:26:41;;;;;;;2.15;1.02;;;4.10;1.00;;;;;;5052191;28;20184;-80
2020/12/29 02:29:07;;;;;;;1.40;1.30;;;;;;;;;;5055352;28;20745;-80
2020/12/29 02:31:33;;;;;;;1.45;1.35;;;4.10;1.00;;;;;;5054995;28;20168;-80
2020/12/29 02:34:00;;;;;;;1.42;1.33;;;4.10;1.00;;;;;;5055440;28;20164;-80
2020/12/29 02:36:29;;;;;;;2.85;1.17;;;4.10;1.00;;;;;;5055028;28;20654;-74
2020/12/29 02:38:55;;;;;;;1.38;1.38;;;;;;;;;;5053898;28;20198;-74
2020/12/29 02:41:21;;;;;;;1.50;1.40;;;4.20;1.00;;;;;;5040011;28;20631;-75
2020/12/29 02:43:47;;;;;;;1.57;1.20;;;;;;;;;;5047655;28;20418;-74
2020/12/29 02:46:13;;;;;;;2.28;1.60;;;4.10;1.00;;;;;;5052641;28;20742;-74
2020/12/29 02:48:47;;;;;;;3.45;1.45;;;4.10;1.00;;;;;;5051481;28;20329;-74
2020/12/29 02:51:14;;;;;;;1.50;1.00;;;4.20;1.00;;;;;;5048928;28;20195;-74
2020/12/29 02:53:40;;;;;;;3.05;1.50;;;;;;;;;;5055485;28;20160;-74
2020/12/29 02:56:18;;;;;;;2.28;1.58;;;4.20;1.00;;;;;;5053881;28;20206;-74
2020/12/29 02:58:43;;;;;;;1.30;1.20;;;4.30;1.00;;;;;;5055381;28;20160;-74
2020/12/29 03:01:09;;;;;;;1.50;1.40;;;4.30;1.00;;;;;;5055022;28;20168;-74
2020/12/29 03:03:35;;;;;;;1.07;1.03;;;4.30;1.00;;;;;;5054041;28;20168;-74
2020/12/29 03:06:01;;;;;;;1.40;1.30;;;;;;;;;;5054834;28;20179;-74
2020/12/29 03:08:31;;;;;;;1.92;1.75;;;4.20;1.00;;;;;;5055116;28;20191;-74
2020/12/29 03:10:57;;;;;;;3.40;1.48;;;4.30;1.00;;;;;;5054915;28;20175;-74
2020/12/29 03:13:24;;;;;;;1.50;1.40;;;;;;;;;;5054521;28;20247;-74
2020/12/29 03:15:50;;;;;;;2.67;1.58;;;4.30;1.00;;;;;;5054872;28;20191;-74
2020/12/29 03:18:23;;;;;;;1.73;1.50;;;4.30;1.00;;;;;;5054521;28;20171;-74
2020/12/29 03:20:49;;;;;;;1.30;1.20;;;4.30;1.00;;;;;;5054647;28;20244;-74
2020/12/29 03:23:15;;;;;;;1.30;1.20;;;;;;;;;;5053798;28;20211;-74
2020/12/29 03:25:41;;;;;;;1.40;1.35;;;4.30;1.00;;;;;;5054447;28;20190;-74
2020/12/29 03:28:06;;;;;;;2.03;1.60;;;4.20;1.00;;;;;;5054072;28;20195;-74
2020/12/29 03:30:32;;;;;;;1.50;1.40;;;4.20;1.00;;;;;;5053817;28;20164;-75
2020/12/29 03:32:59;;;;;;;1.07;1.00;;;4.30;1.00;;;;;;5053438;28;20247;-75
2020/12/29 03:35:29;;;;;;;1.10;1.10;;;4.30;1.00;;;;;;5053992;28;20538;-74
2020/12/29 03:37:55;;;;;;;2.13;1.52;;;4.30;1.00;;;;;;5054847;28;20661;-74
2020/12/29 03:40:23;;;;;;;1.33;1.23;;;4.30;1.00;;;;;;5048366;28;20279;-74
2020/12/29 03:42:59;;;;;;;5.57;1.73;;;4.40;1.00;;;;;;5039596;28;20196;-74
2020/12/29 03:45:25;;;;;;;1.23;1.10;;;;;;;;;;5039412;28;20168;-74
2020/12/29 03:47:51;;;;;;;1.90;1.80;;;4.30;1.00;;;;;;5036135;28;20552;-74
2020/12/29 03:50:17;;;;;;;1.63;1.07;;;;;;;;;;5051700;28;20418;-74
2020/12/29 03:52:44;;;;;;;4.70;1.77;;;;;;;;;;5053480;28;20240;-81
2020/12/29 03:55:10;;;;;;;2.10;1.60;;;;;;;;;;5046988;28;20509;-80
2020/12/29 03:57:41;;;;;;;3.80;1.33;;;4.40;1.00;;;;;;5049506;28;20193;-80
2020/12/29 04:00:12;;;;;;;1.52;1.25;;;;;;;;;;5053282;28;20662;-80
2020/12/29 04:02:41;;;;;;;4.15;1.38;;;4.40;1.00;;;;;;5053528;28;20174;-80
2020/12/29 04:05:08;;;;;;;1.00;1.00;;;;;;;;;;5053467;28;20167;-80
2020/12/29 04:07:34;;;;;;;2.63;1.73;;;;;;;;;;5053527;28;20724;-74
2020/12/29 04:10:00;;;;;;;3.40;1.38;;;;;;;;;;5052839;28;20647;-74
2020/12/29 04:12:26;;;;;;;2.10;1.75;;;;;;;;;;5051189;28;20622;-74
2020/12/29 04:14:52;;;;;;;1.60;1.50;;;;;;;;;;5052818;28;20172;-75
2020/12/29 04:17:18;;;;;;;1.50;1.40;;;;;;;;;;5052938;28;20194;-74
2020/12/29 04:19:44;;;;;;;2.42;1.50;;;4.50;1.00;;;;;;5052957;28;20161;-74
2020/12/29 04:22:11;;;;;;;1.57;1.47;;;4.40;1.00;;;;;;5052889;28;20172;-80
2020/12/29 04:24:47;;;;;;;2.53;1.73;;;4.50;1.00;;;;;;5069135;28;20206;-80
2020/12/29 04:27:29;;;;;;;2.35;1.65;;;4.50;1.00;;;;;;5053283;28;20202;-80
2020/12/29 04:30:11;;;;;;;1.85;1.40;;;4.50;1.00;;;;;;5053626;28;20595;-80
2020/12/29 04:32:41;;;;;;;1.90;1.80;;;4.50;1.00;;;;;;5053063;28;20556;-80
2020/12/29 04:35:11;;;;;;;1.67;1.42;;;4.60;1.00;;;;;;5052974;28;20172;-80
2020/12/29 04:37:37;;;;;;;3.70;2.05;;;4.60;1.00;;;;;;5053394;28;20254;-75
2020/12/29 04:40:05;;;;;;;1.30;1.20;;;4.60;1.00;;;;;;5051995;28;20191;-74
2020/12/29 04:42:31;;;;;;;1.63;1.50;;;4.60;1.00;;;;;;5042922;28;20246;-74
2020/12/29 04:44:57;;;;;;;1.80;1.30;;;4.60;1.00;;;;;;5050102;28;20219;-74
2020/12/29 04:47:29;;;;;;;1.57;1.10;;;4.70;1.00;;;;;;5047065;28;20234;-74
2020/12/29 04:49:59;;;;;;;1.48;1.13;;;4.70;1.00;;;;;;5048423;28;20453;-74
2020/12/29 04:52:36;;;;;;;4.20;1.20;;;4.70;1.00;;;;;;5052021;28;20184;-80
2020/12/29 04:55:35;;;;;;;2.35;1.02;;;4.70;1.00;;;;;;5053383;28;20179;-80
2020/12/29 04:58:05;;;;;;;0.98;0.60;;;4.80;1.00;;;;;;5068687;28;20604;-81
2020/12/29 05:00:48;;;;;;;1.00;0.90;;;4.80;1.00;;;;;;5053142;28;20156;-80
2020/12/29 05:03:27;;;;;;;0.80;0.60;;;4.80;1.00;;;;;;5053010;28;20175;-80
2020/12/29 05:05:53;;;;;;;0.88;0.88;;;4.80;1.00;;;;;;5051537;28;20202;-81
2020/12/29 05:08:18;;;;;;;0.70;0.70;;;4.80;1.00;;;;;;5069181;28;20200;-74
2020/12/29 05:10:47;;;;;;;0.50;0.50;;;4.80;1.00;;;;;;5053329;28;20172;-74
2020/12/29 05:13:18;;;;;;;0.80;0.80;;;4.90;1.00;;;;;;5052889;28;20775;-74
2020/12/29 05:15:47;;;;;;;0.93;0.93;;;4.90;1.00;;;;;;5053308;28;20642;-79
2020/12/29 05:18:13;;;;;;;0.60;0.60;;;4.80;1.00;;;;;;5052016;28;20591;-75
2020/12/29 05:20:39;;;;;;;0.80;0.77;;;4.90;1.00;;;;;;5052817;28;20256;-74
2020/12/29 05:23:23;;;;;;;0.93;0.77;;;4.90;1.00;;;;;;5053361;28;20167;-82
2020/12/29 05:26:35;;;;;;;0.90;0.90;;;4.90;1.00;;;;;;5053122;28;20164;-80
2020/12/29 05:29:24;;;;;;;0.80;0.70;;;4.90;1.00;;;;;;5052593;28;20197;-80
2020/12/29 05:31:50;;;;;;;0.60;0.60;;;4.80;1.00;;;;;;5045518;28;20259;-82
2020/12/29 05:34:56;;;;;;;1.50;0.90;;;4.80;1.00;;;;;;5052664;28;20164;-80
2020/12/29 05:37:25;;;;;;;0.40;0.40;;;4.80;1.00;;;;;;5053025;28;20642;-80
2020/12/29 05:40:25;;;;;;;0.50;0.50;;;4.80;1.00;;;;;;5052908;28;20196;-80
2020/12/29 05:43:01;;;;;;;0.50;0.50;;;4.70;1.00;;;;;;5046693;28;20187;-81
2020/12/29 05:45:32;;;;;;;0.30;0.30;;;4.70;1.00;;;;;;5038540;28;20191;-81
2020/12/29 05:47:59;;;;;;;0.50;0.50;;;4.60;1.00;;;;;;5039236;28;20201;-81
2020/12/29 05:50:26;;;;;;;1.58;0.52;;;4.60;1.00;;;;;;5043431;28;20222;-80
2020/12/29 05:52:54;;;;;;;0.60;0.55;;;4.60;1.00;;;;;;5050320;28;20180;-78
2020/12/29 05:55:35;;;;;;;0.55;0.55;;;4.60;1.00;;;;;;5049559;28;20183;-79
2020/12/29 05:58:11;;;;;;;0.55;0.55;;;4.50;1.00;;;;;;5047757;28;20180;-81
2020/12/29 06:00:54;;;;;;;1.05;0.70;;;4.40;1.00;;;;;;5055679;28;20174;-81
2020/12/29 06:03:30;;;;;;;0.40;0.40;;;4.40;1.00;;;;;;5056452;28;20168;-80
2020/12/29 06:05:59;;;;;;;0.55;0.55;;;4.40;1.00;;;;;;5056390;28;20175;-81
2020/12/29 06:08:27;;;;;;;0.70;0.68;;;4.40;1.00;;;;;;5056063;28;20278;-80
2020/12/29 06:11:03;;;;;;;0.75;0.75;;;4.40;1.00;;;;;;5055898;28;20160;-81
2020/12/29 06:13:36;;;;;;;0.50;0.50;;;4.40;1.00;;;;;;5055166;28;20194;-80
2020/12/29 06:16:03;;;;;;;0.63;0.63;;;4.30;1.00;;;;;;5054711;28;20199;-80
2020/12/29 06:18:34;;;;;;;0.70;0.70;;;4.30;1.00;;;;;;5054501;28;20175;-81
2020/12/29 06:21:04;;;;;;;0.60;0.60;;;4.30;1.00;;;;;;5054972;28;20168;-80
2020/12/29 06:23:41;;;;;;;0.65;0.65;;;4.30;1.00;;;;;;5046754;28;20616;-80
2020/12/29 06:26:09;;;;;;;0.75;0.75;;;4.30;1.00;;;;;;5042683;28;20184;-80
2020/12/29 06:28:43;;;;;;;0.60;0.60;;;4.30;1.00;;;;;;5043130;28;20298;-81
2020/12/29 06:31:10;;;;;;;0.63;0.63;;;4.20;1.00;;;;;;5041542;28;20172;-81
2020/12/29 06:33:38;;;;;;;0.50;0.50;;;4.30;1.00;;;;;;5054967;28;20172;-81
2020/12/29 06:36:06;;;;;;;0.55;0.55;;;4.30;1.00;;;;;;5036827;28;20670;-81
2020/12/29 06:38:33;;;;;;;0.60;0.60;;;4.20;1.00;;;;;;5050283;28;20694;-80
2020/12/29 06:41:00;;;;;;;1.80;0.70;;;4.20;1.00;;;;;;5053278;28;20649;-80
2020/12/29 06:43:26;;;;;;;2.65;0.50;;;4.20;1.00;;;;;;5050682;28;20204;-81
2020/12/29 06:45:52;;;;;;;0.50;0.50;;;;;;;;;;5036844;28;20184;-81
2020/12/29 06:48:21;;;;;;;0.43;0.43;;;4.20;1.00;;;;;;5050025;28;20239;-81
2020/12/29 06:50:47;;;;;;;0.60;0.50;;;4.20;1.00;;;;;;5049911;28;20468;-81
2020/12/29 06:53:19;;;;;;;0.70;0.70;;;4.20;1.00;;;;;;5034941;28;20686;-81
2020/12/29 06:55:49;;;;;;;0.60;0.60;;;4.20;1.00;;;;;;5034539;28;20161;-75
2020/12/29 06:58:32;;;;;;;0.60;0.60;;;4.20;1.00;;;;;;5034432;28;20675;-74
2020/12/29 07:01:19;;;;;;;0.73;0.73;;;4.10;1.00;;;;;;5034420;28;20487;-74
2020/12/29 07:03:45;;;;;;;0.40;0.40;;;4.10;1.00;;;;;;5036539;28;20152;-75
2020/12/29 07:06:11;;;;;;;0.75;0.75;;;3.90;1.00;;;;;;5053935;28;20168;-74
2020/12/29 07:08:36;;;;;;;0.70;0.70;;;3.80;1.00;;;;;;5054498;28;20193;-80
2020/12/29 07:11:16;;;;;;;0.50;0.50;;;3.90;1.00;;;;;;5047914;28;20604;-80
2020/12/29 07:13:45;;;;;;;0.70;0.70;;;3.90;1.00;;;;;;5050901;28;20172;-80
2020/12/29 07:16:13;;;;;;;0.60;0.60;;;4.00;1.00;;;;;;5048542;28;20606;-81
2020/12/29 07:18:43;;;;;;;0.65;0.65;;;4.00;1.00;;;;;;5041493;28;20242;-81
2020/12/29 07:21:24;;;;;;;0.95;0.68;;;4.00;1.00;;;;;;5034644;28;20215;-81
2020/12/29 07:23:51;;;;;;;0.80;0.80;;;4.00;1.00;;;;;;5054066;28;20680;-80
2020/12/29 07:26:23;;;;;;;0.85;0.85;;;4.00;1.00;;;;;;5054426;28;20255;-80
2020/12/29 07:28:56;;;;;;;1.42;0.65;;;4.00;1.00;;;;;;5054328;28;20234;-80
2020/12/29 07:31:23;;;;;;;0.80;0.70;;;;;;;;;;5053899;28;20157;-80
2020/12/29 07:34:10;;;;;;;1.77;0.80;;;4.00;1.00;;;;;;5054334;28;20251;-81
2020/12/29 07:36:47;;;;;;;0.88;0.50;;;4.00;1.00;;;;;;5053718;28;20183;-80
2020/12/29 07:39:24;;;;;;;10.32;0.77;;;4.00;1.00;;;;;;5054521;28;20241;-80
2020/12/29 07:42:17;;;;;;;0.60;0.60;;;4.00;1.00;;;;;;5053825;28;20862;-80
2020/12/29 07:44:43;;;;;;;0.60;0.60;;;4.00;1.00;;;;;;5050497;28;20651;-80
2020/12/29 07:47:09;;;;;;;0.73;0.47;;;;;;;;;;5046711;28;20294;-80
2020/12/29 07:49:35;;;;;;;0.65;0.65;;;3.90;1.00;;;;;;5049482;28;20488;-80
2020/12/29 07:52:01;;;;;;;0.50;0.50;;;;;;;;;;5052995;28;20183;-80
2020/12/29 07:54:27;;;;;;;0.60;0.60;;;;;;;;;;5053336;28;20179;-74
2020/12/29 07:56:53;;;;;;;0.88;0.60;;;;;;;;;;5052962;28;20160;-75
2020/12/29 07:59:21;;;;;;;0.70;0.60;;;4.10;1.00;;;;;;5045568;28;20184;-74
2020/12/29 08:01:50;;;;;;;5.90;0.80;;;;;;;;;;5051289;28;20245;-75
2020/12/29 08:04:32;;;;;;;0.50;0.50;;;4.20;1.00;;;;;;5052649;28;20527;-74
2020/12/29 08:06:59;;;;;;;0.50;0.50;;;4.20;1.00;;;;;;5049022;28;20688;-74
2020/12/29 08:09:25;;;;;;;0.73;0.43;;;4.20;1.00;;;;;;5046848;28;20171;-74
2020/12/29 08:11:51;;;;;;;1.10;0.60;;;4.20;1.00;;;;;;5052614;28;20164;-75
2020/12/29 08:14:17;;;;;;;0.70;0.60;;;4.30;1.00;;;;;;5051374;28;20225;-74
2020/12/29 08:16:43;;;;;;;0.60;0.60;;;;;;;;;;5052828;28;20199;-74
2020/12/29 08:19:09;;;;;;;0.60;0.60;;;4.30;1.00;;;;;;5052698;28;20254;-74
2020/12/29 08:21:36;;;;;;;0.53;0.53;;;;;;;;;;5036113;28;20279;-74
2020/12/29 08:24:02;;;;;;;0.52;0.52;;;4.20;1.00;;;;;;5033095;28;20180;-80
2020/12/29 08:26:27;;;;;;;0.47;0.47;;;4.30;1.00;;;;;;5032911;28;20159;-81
2020/12/29 08:28:55;;;;;;;0.73;0.70;;;;;;;;;;5032796;28;20485;-81
2020/12/29 08:31:21;;;;;;;0.40;0.40;;;4.30;1.00;;;;;;5047374;28;20213;-81
2020/12/29 08:33:51;;;;;;;0.52;0.50;;;4.40;1.00;;;;;;5035264;28;20253;-80
2020/12/29 08:36:26;;;;;;;0.50;0.50;;;4.40;1.00;;;;;;5039278;28;20168;-80
2020/12/29 08:39:28;;;;;;;0.73;0.52;;;4.40;1.00;;;;;;5052744;28;20202;-80
2020/12/29 08:42:00;;;;;;;0.47;0.47;;;4.40;1.00;;;;;;5049417;28;20193;-81
2020/12/29 08:44:28;;;;;;;0.88;0.60;;;4.50;1.00;;;;;;5048538;28;20194;-80
2020/12/29 08:46:55;;;;;;;0.57;0.50;;;4.50;1.00;;;;;;5033428;28;20684;-75
2020/12/29 08:49:30;;;;;;;0.63;0.63;;;4.50;1.00;;;;;;5042051;28;20211;-74
2020/12/29 08:51:59;;;;;;;0.63;0.63;;;4.40;1.00;;;;;;5037426;28;20166;-75
2020/12/29 08:54:25;;;;;;;0.40;0.40;;;4.50;1.00;;;;;;5049442;28;20226;-80
2020/12/29 08:56:59;;;;;;;0.50;0.50;;;4.50;1.00;;;;;;5052214;28;20156;-81
2020/12/29 08:59:33;;;;;;;0.50;0.50;;;4.50;1.00;;;;;;5038404;28;20164;-81
2020/12/29 09:02:01;;;;;;;0.70;0.70;;;4.60;1.00;;;;;;5037357;28;20662;-80
2020/12/29 09:04:33;;;;;;;0.50;0.50;;;4.60;1.00;;;;;;5052527;28;20156;-80
2020/12/29 09:07:03;;;;;;;0.47;0.47;;;4.60;1.00;;;;;;5048177;28;20255;-81
2020/12/29 09:09:32;;;;;;;0.50;0.50;;;4.60;1.00;;;;;;5052740;28;20168;-75
2020/12/29 09:12:08;;;;;;;3.20;0.50;;;4.70;1.00;;;;;;5052135;28;20556;-75
2020/12/29 09:14:35;;;;;;;0.50;0.50;;;;;;;;;;5031562;28;20172;-74
2020/12/29 09:17:05;;;;;;;0.40;0.40;;;4.60;1.00;;;;;;5039226;28;20578;-74
2020/12/29 09:19:31;;;;;;;0.93;0.82;;;;;;;;;;5046797;28;20182;-75
2020/12/29 09:22:11;;;;;;;0.40;0.40;;;4.70;1.00;;;;;;5041783;28;20539;-74
2020/12/29 09:24:37;;;;;;;0.70;0.70;;;4.70;1.00;;;;;;5046251;28;20251;-80
2020/12/29 09:27:04;;;;;;;0.80;0.55;;;4.70;1.00;;;;;;5055840;28;20164;-80
2020/12/29 09:29:33;;;;;;;0.70;0.70;;;4.80;1.00;;;;;;5049811;28;20615;-80
2020/12/29 09:32:00;;;;;;;0.60;0.60;;;4.80;1.00;;;;;;5039635;28;20167;-81
2020/12/29 09:34:26;;;;;;;0.70;0.70;;;4.80;1.00;;;;;;5055747;28;20163;-81
2020/12/29 09:36:52;;;;;;;0.70;0.70;;;;;;;;;;5054173;28;20186;-80
2020/12/29 09:39:23;;;;;;;0.60;0.60;;;4.90;1.00;;;;;;5050611;28;20488;-78
2020/12/29 09:41:55;;;;;;;0.65;0.65;;;4.80;1.00;;;;;;5037976;28;20431;-75
2020/12/29 09:44:21;;;;;;;0.70;0.70;;;4.80;1.00;;;;;;5047416;28;20647;-75
2020/12/29 09:46:47;;;;;;;0.70;0.70;;;;;;;;;;5049535;28;20199;-75
2020/12/29 09:49:13;;;;;;;0.47;0.47;;;;;;;;;;5041563;28;20269;-75
2020/12/29 09:51:38;;;;;;;0.80;0.80;;;4.90;1.00;;;;;;5042709;28;20411;-75
2020/12/29 09:54:04;;;;;;;0.60;0.60;;;;;;;;;;5048035;28;20410;-75
2020/12/29 09:56:30;;;;;;;0.83;0.83;;;4.90;1.00;;;;;;5055831;28;20156;-79
2020/12/29 09:58:56;;;;;;;0.68;0.68;;;4.90;1.00;;;;;;5055529;28;20763;-80
2020/12/29 10:01:22;;;;;;;1.73;0.87;;;;;;;;;;5049904;28;20194;-79
2020/12/29 10:03:48;;;;;;;0.70;0.70;;;;;;;;;;5043565;28;20580;-79
2020/12/29 10:06:16;;;;;;;0.70;0.70;;;5.00;1.00;;;;;;5052158;28;20522;-79
2020/12/29 10:08:43;;;;;;;0.60;0.60;;;;;;;;;;5041765;28;20528;-75
2020/12/29 10:11:11;;;;;;;2.15;0.90;;;5.00;1.00;;;;;;5037398;28;20180;-79
2020/12/29 10:13:37;;;;;;;1.25;0.98;;;5.00;1.00;;;;;;5039107;28;20184;-79
2020/12/29 10:16:03;;;;;;;0.80;0.80;;;;;;;;;;5045303;28;20184;-79
2020/12/29 10:18:30;;;;;;;1.30;1.20;;;;;;;;;;5045448;28;20585;-79
2020/12/29 10:20:55;;;;;;;0.70;0.70;;;;;;;;;;5044473;28;20456;-79
2020/12/29 10:23:21;;;;;;;1.33;0.73;;;5.10;1.00;;;;;;5041104;28;20211;-79
2020/12/29 10:25:47;;;;;;;0.80;0.80;;;;;;;;;;5055587;28;20406;-75
2020/12/29 10:28:13;;;;;;;1.13;0.93;;;5.20;1.00;;;;;;5053623;28;20237;-75
2020/12/29 10:30:39;;;;;;;0.63;0.63;;;;;;;;;;5036312;28;20251;-75
2020/12/29 10:33:05;;;;;;;1.00;0.90;;;;;;;;;;5044710;28;20647;-75
2020/12/29 10:35:31;;;;;;;0.90;0.90;;;;;;;;;;5045467;28;20964;-75
2020/12/29 10:37:57;;;;;;;0.70;0.65;;;;;;;;;;5039084;28;20262;-75
2020/12/29 10:40:23;;;;;;;0.80;0.80;;;5.40;1.00;;;;;;5045489;28;20207;-75
2020/12/29 10:42:49;;;;;;;0.73;0.70;;;;;;;;;;5034002;28;20921;-75
2020/12/29 10:45:15;;;;;;;0.90;0.90;;;;;;;;;;5047783;28;20187;-75
2020/12/29 10:47:41;;;;;;;0.70;0.70;;;;;;;;;;5035871;28;20875;-75
2020/12/29 10:50:07;;;;;;;0.93;0.93;;;5.80;1.00;;;;;;5046834;28;20196;-75
2020/12/29 10:52:32;;;;;;;0.90;0.90;;;5.80;1.00;;;;;;5054216;28;20429;-75
2020/12/29 10:54:58;;;;;;;0.70;0.70;;;;;;;;;;5054469;28;20183;-76
2020/12/29 10:57:24;;;;;;;2.20;0.70;;;;;;;;;;5054447;28;20184;-79
2020/12/29 10:59:50;;;;;;;0.87;0.87;;;6.10;1.00;;;;;;5054519;28;20398;-79
2020/12/29 11:02:15;;;;;;;1.00;1.00;;;6.10;1.00;;;;;;5054276;28;20413;-79
2020/12/29 11:04:41;;;;;;;0.60;0.60;;;6.10;1.00;;;;;;5054303;28;20160;-80
2020/12/29 11:07:07;;;;;;;1.30;1.03;;;6.10;1.00;;;;;;5054149;28;20167;-80
2020/12/29 11:09:32;;;;;;;0.87;0.87;;;6.00;1.00;;;;;;5054377;28;20243;-79
2020/12/29 11:11:58;;;;;;;0.97;0.90;;;6.00;1.00;;;;;;5054881;28;20161;-79
2020/12/29 11:14:24;;;;;;;0.87;0.87;;;6.20;1.00;;;;;;5054262;28;20607;-79
2020/12/29 11:16:49;;;;;;;2.30;1.00;;;6.20;1.00;;;;;;5050206;28;20163;-79
2020/12/29 11:19:15;;;;;;;1.00;0.90;;;6.10;1.00;;;;;;5034166;28;20396;-79
2020/12/29 11:21:41;;;;;;;0.80;0.80;;;6.20;1.00;;;;;;5038884;28;20254;-79
2020/12/29 11:24:07;;;;;;;1.17;0.70;;;;;;;;;;5052745;28;20766;-79
2020/12/29 11:26:48;;;;;;;5.40;1.23;;;;;;;;;;5048882;28;20184;-75
2020/12/29 11:29:14;;;;;;;0.70;0.70;;;;;;;;;;5042721;28;20449;-74
2020/12/29 11:31:40;;;;;;;0.87;0.87;;;;;;;;;;5053867;28;20737;-74
2020/12/29 11:34:06;;;;;;;0.70;0.70;;;;;;;;;;5053425;28;20399;-74
2020/12/29 11:36:32;;;;;;;0.97;0.80;;;;;;;;;;5053400;28;20444;-74
2020/12/29 11:38:58;;;;;;;1.07;1.00;;;6.20;1.00;;;;;;5040695;28;20794;-74
2020/12/29 11:41:24;;;;;;;1.17;0.77;;;;;;;;;;5033833;28;20409;-78
2020/12/29 11:43:51;;;;;;;0.90;0.90;;;;;;;;;;5031896;28;20619;-78
2020/12/29 11:46:17;;;;;;;2.40;1.00;;;;;;;;;;5042293;28;20462;-78
2020/12/29 11:48:43;;;;;;;1.20;0.90;;;6.30;1.00;;;;;;5044406;28;20506;-79
2020/12/29 11:51:09;;;;;;;0.90;0.90;;;6.40;1.00;;;;;;5041309;28;20433;-78
2020/12/29 11:53:35;;;;;;;1.73;1.33;;;6.30;1.00;;;;;;5039260;28;20172;-79
2020/12/29 11:56:01;;;;;;;1.17;1.07;;;;;;;;;;5033728;28;20392;-75
2020/12/29 11:58:26;;;;;;;6.23;1.07;;;6.30;1.00;;;;;;5039487;28;20212;-75
2020/12/29 12:00:53;;;;;;;0.80;0.80;;;6.30;1.00;;;;;;5039354;28;20492;-74
2020/12/29 12:03:18;;;;;;;0.70;0.70;;;6.40;1.00;;;;;;5039110;28;20179;-73
2020/12/29 12:05:44;;;;;;;1.43;0.80;;;6.40;1.00;;;;;;5048209;28;20758;-74
2020/12/29 12:08:09;;;;;;;2.30;0.80;;;6.40;1.00;;;;;;5047155;28;20239;-75
2020/12/29 12:10:35;;;;;;;1.60;0.87;;;;;;;;;;5033053;28;20165;-75
2020/12/29 12:13:01;;;;;;;0.80;0.70;;;6.60;1.00;;;;;;5033526;28;20215;-74
2020/12/29 12:15:27;;;;;;;0.60;0.60;;;;;;;;;;5032971;28;20843;-74
2020/12/29 12:17:53;;;;;;;1.13;0.83;;;;;;;;;;5033099;28;20239;-74
2020/12/29 12:20:19;;;;;;;2.60;1.00;;;;;;;;;;5032966;28;20403;-75
2020/12/29 12:22:45;;;;;;;1.17;0.57;;;;;;;;;;5032852;28;20423;-74
2020/12/29 12:25:11;;;;;;;0.80;0.80;;;;;;;;;;5035270;28;20917;-74
2020/12/29 12:27:37;;;;;;;2.13;0.90;;;;;;;;;;5044076;28;20462;-78
2020/12/29 12:30:03;;;;;;;0.87;0.50;;;7.30;1.00;;;;;;5032893;28;20752;-78
2020/12/29 12:32:29;;;;;;;1.17;0.83;;;;;;;;;;5047907;28;20414;-78
2020/12/29 12:34:55;;;;;;;0.97;0.83;;;;;;;;;;5040412;28;20541;-78
2020/12/29 12:37:21;;;;;;;1.90;0.90;;;;;;;;;;5038429;28;20445;-78
2020/12/29 12:39:47;;;;;;;1.43;0.77;;;;;;;;;;5036960;28;20925;-80
2020/12/29 12:42:13;;;;;;;0.90;0.90;;;;;;;;;;5047401;28;20413;-74
2020/12/29 12:44:40;;;;;;;5.90;0.87;;;;;;;;;;5038064;28;20485;-74
2020/12/29 12:47:07;;;;;;;0.90;0.80;;;7.20;1.00;;;;;;5032443;28;20886;-74
2020/12/29 12:49:33;;;;;;;1.70;0.70;;;;;;;;;;5032672;28;20471;-73
2020/12/29 12:51:58;;;;;;;1.13;0.80;;;7.20;1.00;;;;;;5032199;28;20522;-74
2020/12/29 12:54:26;;;;;;;2.03;0.83;;;7.10;1.00;;;;;;5040998;28;20920;-78
2020/12/29 12:56:53;;;;;;;0.70;0.70;;;7.10;1.00;;;;;;5057152;28;20185;-78
2020/12/29 12:59:19;;;;;;;0.90;0.63;;;7.10;1.00;;;;;;5053347;28;20915;-78
2020/12/29 13:01:45;;;;;;;2.70;1.10;;;7.00;1.00;;;;;;5054799;28;20460;-79
2020/12/29 13:04:11;;;;;;;1.40;0.83;;;;;;;;;;5055040;28;20460;-78
2020/12/29 13:06:37;;;;;;;1.27;1.17;;;6.90;1.00;;;;;;5052317;28;20414;-78
2020/12/29 13:09:03;;;;;;;1.70;1.03;;;6.80;1.00;;;;;;5036788;28;20447;-74
2020/12/29 13:11:28;;;;;;;1.00;0.90;;;6.90;1.00;;;;;;5035532;28;20175;-78
2020/12/29 13:13:54;;;;;;;1.33;1.00;;;6.90;1.00;;;;;;5036575;28;20408;-78
2020/12/29 13:16:23;;;;;;;3.13;1.10;;;7.00;1.00;;;;;;5037468;28;20164;-78
2020/12/29 13:18:50;;;;;;;1.00;0.90;;;7.00;1.00;;;;;;5056382;28;20164;-78
2020/12/29 13:21:16;;;;;;;1.13;1.13;;;6.90;1.00;;;;;;5052419;28;20439;-78
2020/12/29 13:23:42;;;;;;;1.97;1.10;;;6.90;1.00;;;;;;5055221;28;20426;-78
2020/12/29 13:26:13;;;;;;;1.80;1.20;;;6.80;1.00;;;;;;5054911;28;20927;-78
2020/12/29 13:28:39;;;;;;;1.13;1.07;;;6.80;1.00;;;;;;5055050;28;20545;-74
2020/12/29 13:31:05;;;;;;;1.63;1.27;;;6.70;1.00;;;;;;5047980;28;20411;-73
2020/12/29 13:33:31;;;;;;;10.33;1.17;;;6.80;1.00;;;;;;5043013;28;20909;-74
2020/12/29 13:35:57;;;;;;;3.77;1.30;;;;;;;;;;5055742;28;20394;-74
2020/12/29 13:38:23;;;;;;;7.30;1.30;;;;;;;;;;5053688;28;20242;-74
2020/12/29 13:40:48;;;;;;;1.53;1.33;;;6.80;1.00;;;;;;5054041;28;20414;-73
2020/12/29 13:43:15;;;;;;;3.17;1.37;;;6.70;1.00;;;;;;5056188;28;20755;-74